sensor_id;sensor_type;location;lat;lon;timestamp;P1;durP1;ratioP1;P2;durP2;ratioP2
35418;SDS011;21525;41.240;16.500;2024-02-21T00:02:19;15.70;;;10.80;;
35418;SDS011;21525;41.240;16.500;2024-02-21T00:04:45;16.10;;;11.30;;
35418;SDS011;21525;41.240;16.500;2024-02-21T00:07:11;14.85;;;10.88;;
35418;SDS011;21525;41.240;16.500;2024-02-21T00:09:37;16.13;;;11.70;;
35418;SDS011;21525;41.240;16.500;2024-02-21T00:12:04;16.23;;;11.43;;
35418;SDS011;21525;41.240;16.500;2024-02-21T00:14:30;14.82;;;10.30;;
35418;SDS011;21525;41.240;16.500;2024-02-21T00:16:56;16.50;;;11.20;;
35418;SDS011;21525;41.240;16.500;2024-02-21T00:19:22;15.20;;;10.00;;
35418;SDS011;21525;41.240;16.500;2024-02-21T00:21:48;13.90;;;9.77;;
35418;SDS011;21525;41.240;16.500;2024-02-21T00:24:14;16.27;;;9.88;;
35418;SDS011;21525;41.240;16.500;2024-02-21T00:26:39;14.00;;;9.50;;
35418;SDS011;21525;41.240;16.500;2024-02-21T00:29:05;13.75;;;9.00;;
35418;SDS011;21525;41.240;16.500;2024-02-21T00:31:31;16.80;;;9.75;;
35418;SDS011;21525;41.240;16.500;2024-02-21T00:33:57;12.85;;;9.13;;
35418;SDS011;21525;41.240;16.500;2024-02-21T00:36:23;14.32;;;8.65;;
35418;SDS011;21525;41.240;16.500;2024-02-21T00:38:49;14.00;;;8.80;;
35418;SDS011;21525;41.240;16.500;2024-02-21T00:41:15;13.25;;;8.60;;
35418;SDS011;21525;41.240;16.500;2024-02-21T00:43:41;13.98;;;8.82;;
35418;SDS011;21525;41.240;16.500;2024-02-21T00:46:07;11.23;;;8.27;;
35418;SDS011;21525;41.240;16.500;2024-02-21T00:48:33;12.60;;;8.05;;
35418;SDS011;21525;41.240;16.500;2024-02-21T00:50:59;14.18;;;8.32;;
35418;SDS011;21525;41.240;16.500;2024-02-21T00:53:25;11.15;;;8.27;;
35418;SDS011;21525;41.240;16.500;2024-02-21T00:55:51;13.57;;;8.55;;
35418;SDS011;21525;41.240;16.500;2024-02-21T00:58:16;12.27;;;8.00;;
35418;SDS011;21525;41.240;16.500;2024-02-21T01:00:42;11.65;;;8.55;;
35418;SDS011;21525;41.240;16.500;2024-02-21T01:03:08;13.35;;;8.07;;
35418;SDS011;21525;41.240;16.500;2024-02-21T01:05:34;9.48;;;7.57;;
35418;SDS011;21525;41.240;16.500;2024-02-21T01:08:00;13.18;;;8.13;;
35418;SDS011;21525;41.240;16.500;2024-02-21T01:10:25;13.98;;;8.38;;
35418;SDS011;21525;41.240;16.500;2024-02-21T01:12:51;13.30;;;7.65;;
35418;SDS011;21525;41.240;16.500;2024-02-21T01:15:17;12.05;;;7.47;;
35418;SDS011;21525;41.240;16.500;2024-02-21T01:17:43;10.52;;;7.00;;
35418;SDS011;21525;41.240;16.500;2024-02-21T01:20:09;11.98;;;7.93;;
35418;SDS011;21525;41.240;16.500;2024-02-21T01:22:35;12.10;;;7.40;;
35418;SDS011;21525;41.240;16.500;2024-02-21T01:25:00;12.23;;;7.88;;
35418;SDS011;21525;41.240;16.500;2024-02-21T01:27:26;10.40;;;6.97;;
35418;SDS011;21525;41.240;16.500;2024-02-21T01:29:52;11.07;;;7.22;;
35418;SDS011;21525;41.240;16.500;2024-02-21T01:32:18;12.85;;;7.40;;
35418;SDS011;21525;41.240;16.500;2024-02-21T01:34:44;10.77;;;7.85;;
35418;SDS011;21525;41.240;16.500;2024-02-21T01:37:10;14.85;;;8.88;;
35418;SDS011;21525;41.240;16.500;2024-02-21T01:39:36;14.55;;;8.15;;
35418;SDS011;21525;41.240;16.500;2024-02-21T01:42:02;11.95;;;8.30;;
35418;SDS011;21525;41.240;16.500;2024-02-21T01:44:28;11.95;;;7.53;;
35418;SDS011;21525;41.240;16.500;2024-02-21T01:46:54;10.15;;;7.40;;
35418;SDS011;21525;41.240;16.500;2024-02-21T01:49:20;12.88;;;8.30;;
35418;SDS011;21525;41.240;16.500;2024-02-21T01:51:47;13.05;;;8.85;;
35418;SDS011;21525;41.240;16.500;2024-02-21T01:54:14;13.02;;;8.18;;
35418;SDS011;21525;41.240;16.500;2024-02-21T01:56:42;11.55;;;8.75;;
35418;SDS011;21525;41.240;16.500;2024-02-21T01:59:08;13.57;;;8.65;;
35418;SDS011;21525;41.240;16.500;2024-02-21T02:01:35;15.35;;;9.13;;
35418;SDS011;21525;41.240;16.500;2024-02-21T02:04:01;13.93;;;9.63;;
35418;SDS011;21525;41.240;16.500;2024-02-21T02:06:28;13.75;;;9.10;;
35418;SDS011;21525;41.240;16.500;2024-02-21T02:08:53;13.75;;;9.75;;
35418;SDS011;21525;41.240;16.500;2024-02-21T02:11:19;14.48;;;9.90;;
35418;SDS011;21525;41.240;16.500;2024-02-21T02:13:45;14.25;;;9.95;;
35418;SDS011;21525;41.240;16.500;2024-02-21T02:16:11;14.93;;;9.55;;
35418;SDS011;21525;41.240;16.500;2024-02-21T02:18:37;15.07;;;10.00;;
35418;SDS011;21525;41.240;16.500;2024-02-21T02:21:04;15.25;;;9.32;;
35418;SDS011;21525;41.240;16.500;2024-02-21T02:23:34;14.27;;;9.68;;
35418;SDS011;21525;41.240;16.500;2024-02-21T02:26:00;13.50;;;9.73;;
35418;SDS011;21525;41.240;16.500;2024-02-21T02:28:29;15.85;;;10.13;;
35418;SDS011;21525;41.240;16.500;2024-02-21T02:30:54;17.38;;;10.45;;
35418;SDS011;21525;41.240;16.500;2024-02-21T02:33:20;16.67;;;10.90;;
35418;SDS011;21525;41.240;16.500;2024-02-21T02:35:46;19.58;;;13.75;;
35418;SDS011;21525;41.240;16.500;2024-02-21T02:38:12;20.00;;;15.70;;
35418;SDS011;21525;41.240;16.500;2024-02-21T02:40:38;26.35;;;19.95;;
35418;SDS011;21525;41.240;16.500;2024-02-21T02:43:06;20.92;;;14.73;;
35418;SDS011;21525;41.240;16.500;2024-02-21T02:45:32;19.45;;;13.25;;
35418;SDS011;21525;41.240;16.500;2024-02-21T02:47:58;21.33;;;15.40;;
35418;SDS011;21525;41.240;16.500;2024-02-21T02:50:24;23.38;;;17.85;;
35418;SDS011;21525;41.240;16.500;2024-02-21T02:52:51;18.70;;;15.13;;
35418;SDS011;21525;41.240;16.500;2024-02-21T02:55:17;23.10;;;16.67;;
35418;SDS011;21525;41.240;16.500;2024-02-21T02:57:44;21.15;;;14.95;;
35418;SDS011;21525;41.240;16.500;2024-02-21T03:00:10;21.65;;;16.05;;
35418;SDS011;21525;41.240;16.500;2024-02-21T03:02:38;22.05;;;15.18;;
35418;SDS011;21525;41.240;16.500;2024-02-21T03:05:26;17.35;;;13.30;;
35418;SDS011;21525;41.240;16.500;2024-02-21T03:07:51;17.58;;;13.13;;
35418;SDS011;21525;41.240;16.500;2024-02-21T03:10:17;18.73;;;14.38;;
35418;SDS011;21525;41.240;16.500;2024-02-21T03:12:43;31.38;;;23.23;;
35418;SDS011;21525;41.240;16.500;2024-02-21T03:15:09;19.88;;;14.63;;
35418;SDS011;21525;41.240;16.500;2024-02-21T03:17:35;27.60;;;15.40;;
35418;SDS011;21525;41.240;16.500;2024-02-21T03:20:04;20.85;;;13.60;;
35418;SDS011;21525;41.240;16.500;2024-02-21T03:22:33;17.73;;;12.68;;
35418;SDS011;21525;41.240;16.500;2024-02-21T03:24:59;19.05;;;13.57;;
35418;SDS011;21525;41.240;16.500;2024-02-21T03:27:25;19.70;;;13.77;;
35418;SDS011;21525;41.240;16.500;2024-02-21T03:29:51;20.25;;;13.73;;
35418;SDS011;21525;41.240;16.500;2024-02-21T03:32:16;20.42;;;13.70;;
35418;SDS011;21525;41.240;16.500;2024-02-21T03:34:42;23.83;;;14.35;;
35418;SDS011;21525;41.240;16.500;2024-02-21T03:37:08;20.83;;;15.00;;
35418;SDS011;21525;41.240;16.500;2024-02-21T03:39:34;20.95;;;14.43;;
35418;SDS011;21525;41.240;16.500;2024-02-21T03:41:59;20.00;;;13.88;;
35418;SDS011;21525;41.240;16.500;2024-02-21T03:44:32;22.20;;;15.45;;
35418;SDS011;21525;41.240;16.500;2024-02-21T03:49:24;21.52;;;14.38;;
35418;SDS011;21525;41.240;16.500;2024-02-21T03:51:50;22.95;;;14.82;;
35418;SDS011;21525;41.240;16.500;2024-02-21T03:54:16;23.85;;;15.18;;
35418;SDS011;21525;41.240;16.500;2024-02-21T03:56:41;21.55;;;14.57;;
35418;SDS011;21525;41.240;16.500;2024-02-21T03:59:07;22.45;;;14.57;;
35418;SDS011;21525;41.240;16.500;2024-02-21T04:01:34;21.38;;;15.65;;
35418;SDS011;21525;41.240;16.500;2024-02-21T04:04:00;22.02;;;16.98;;
35418;SDS011;21525;41.240;16.500;2024-02-21T04:06:26;21.10;;;15.85;;
35418;SDS011;21525;41.240;16.500;2024-02-21T04:08:52;20.73;;;14.93;;
35418;SDS011;21525;41.240;16.500;2024-02-21T04:11:17;19.83;;;15.13;;
35418;SDS011;21525;41.240;16.500;2024-02-21T04:13:44;21.65;;;15.00;;
35418;SDS011;21525;41.240;16.500;2024-02-21T04:16:14;21.17;;;14.30;;
35418;SDS011;21525;41.240;16.500;2024-02-21T04:18:41;20.15;;;14.57;;
35418;SDS011;21525;41.240;16.500;2024-02-21T04:21:07;22.98;;;14.77;;
35418;SDS011;21525;41.240;16.500;2024-02-21T04:23:34;21.83;;;14.68;;
35418;SDS011;21525;41.240;16.500;2024-02-21T04:26:01;20.02;;;13.93;;
35418;SDS011;21525;41.240;16.500;2024-02-21T04:28:27;20.40;;;14.43;;
35418;SDS011;21525;41.240;16.500;2024-02-21T04:30:52;21.50;;;14.82;;
35418;SDS011;21525;41.240;16.500;2024-02-21T04:33:18;19.67;;;13.52;;
35418;SDS011;21525;41.240;16.500;2024-02-21T04:35:44;19.20;;;13.98;;
35418;SDS011;21525;41.240;16.500;2024-02-21T04:38:10;19.38;;;13.57;;
35418;SDS011;21525;41.240;16.500;2024-02-21T04:40:35;22.77;;;14.43;;
35418;SDS011;21525;41.240;16.500;2024-02-21T04:43:01;26.60;;;14.45;;
35418;SDS011;21525;41.240;16.500;2024-02-21T04:45:27;23.20;;;15.00;;
35418;SDS011;21525;41.240;16.500;2024-02-21T04:47:53;22.65;;;14.85;;
35418;SDS011;21525;41.240;16.500;2024-02-21T04:50:19;20.70;;;14.13;;
35418;SDS011;21525;41.240;16.500;2024-02-21T04:52:44;20.00;;;14.10;;
35418;SDS011;21525;41.240;16.500;2024-02-21T04:55:10;23.50;;;15.45;;
35418;SDS011;21525;41.240;16.500;2024-02-21T04:57:36;22.38;;;15.00;;
35418;SDS011;21525;41.240;16.500;2024-02-21T05:00:02;24.25;;;16.48;;
35418;SDS011;21525;41.240;16.500;2024-02-21T05:02:29;24.70;;;16.33;;
35418;SDS011;21525;41.240;16.500;2024-02-21T05:04:55;21.83;;;16.13;;
35418;SDS011;21525;41.240;16.500;2024-02-21T05:07:21;23.25;;;15.90;;
35418;SDS011;21525;41.240;16.500;2024-02-21T05:09:47;22.10;;;15.50;;
35418;SDS011;21525;41.240;16.500;2024-02-21T05:12:13;21.83;;;14.50;;
35418;SDS011;21525;41.240;16.500;2024-02-21T05:14:39;23.33;;;15.27;;
35418;SDS011;21525;41.240;16.500;2024-02-21T05:17:05;22.33;;;14.88;;
35418;SDS011;21525;41.240;16.500;2024-02-21T05:19:30;32.38;;;15.48;;
35418;SDS011;21525;41.240;16.500;2024-02-21T05:21:56;30.27;;;18.08;;
35418;SDS011;21525;41.240;16.500;2024-02-21T05:24:22;27.63;;;17.80;;
35418;SDS011;21525;41.240;16.500;2024-02-21T05:26:48;25.80;;;17.45;;
35418;SDS011;21525;41.240;16.500;2024-02-21T05:29:13;26.98;;;17.80;;
35418;SDS011;21525;41.240;16.500;2024-02-21T05:31:54;30.48;;;18.30;;
35418;SDS011;21525;41.240;16.500;2024-02-21T05:34:24;26.30;;;15.88;;
35418;SDS011;21525;41.240;16.500;2024-02-21T05:36:51;27.77;;;15.60;;
35418;SDS011;21525;41.240;16.500;2024-02-21T05:39:17;21.50;;;14.65;;
35418;SDS011;21525;41.240;16.500;2024-02-21T05:41:43;23.10;;;14.48;;
35418;SDS011;21525;41.240;16.500;2024-02-21T05:44:10;20.27;;;13.15;;
35418;SDS011;21525;41.240;16.500;2024-02-21T05:46:36;20.67;;;13.00;;
35418;SDS011;21525;41.240;16.500;2024-02-21T05:49:01;25.33;;;12.88;;
35418;SDS011;21525;41.240;16.500;2024-02-21T05:51:27;21.42;;;14.05;;
35418;SDS011;21525;41.240;16.500;2024-02-21T05:53:53;22.05;;;15.63;;
35418;SDS011;21525;41.240;16.500;2024-02-21T05:56:19;22.27;;;14.05;;
35418;SDS011;21525;41.240;16.500;2024-02-21T05:58:44;22.48;;;13.40;;
35418;SDS011;21525;41.240;16.500;2024-02-21T06:01:11;21.60;;;13.50;;
35418;SDS011;21525;41.240;16.500;2024-02-21T06:03:37;19.00;;;13.35;;
35418;SDS011;21525;41.240;16.500;2024-02-21T06:06:03;23.85;;;15.10;;
35418;SDS011;21525;41.240;16.500;2024-02-21T06:08:30;29.13;;;17.73;;
35418;SDS011;21525;41.240;16.500;2024-02-21T06:10:56;47.22;;;28.52;;
35418;SDS011;21525;41.240;16.500;2024-02-21T06:13:23;57.40;;;34.72;;
35418;SDS011;21525;41.240;16.500;2024-02-21T06:15:52;57.78;;;36.13;;
35418;SDS011;21525;41.240;16.500;2024-02-21T06:18:18;49.35;;;30.55;;
35418;SDS011;21525;41.240;16.500;2024-02-21T06:20:45;41.65;;;25.67;;
35418;SDS011;21525;41.240;16.500;2024-02-21T06:23:11;31.55;;;19.98;;
35418;SDS011;21525;41.240;16.500;2024-02-21T06:25:38;27.27;;;17.00;;
35418;SDS011;21525;41.240;16.500;2024-02-21T06:28:04;27.45;;;16.13;;
35418;SDS011;21525;41.240;16.500;2024-02-21T06:30:31;21.73;;;13.90;;
35418;SDS011;21525;41.240;16.500;2024-02-21T06:32:56;28.92;;;14.05;;
35418;SDS011;21525;41.240;16.500;2024-02-21T06:35:22;21.65;;;13.60;;
35418;SDS011;21525;41.240;16.500;2024-02-21T06:40:17;23.20;;;11.70;;
35418;SDS011;21525;41.240;16.500;2024-02-21T06:42:46;19.80;;;11.88;;
35418;SDS011;21525;41.240;16.500;2024-02-21T06:45:12;19.33;;;12.07;;
35418;SDS011;21525;41.240;16.500;2024-02-21T06:47:38;21.52;;;11.98;;
35418;SDS011;21525;41.240;16.500;2024-02-21T06:50:04;19.77;;;12.32;;
35418;SDS011;21525;41.240;16.500;2024-02-21T06:52:30;18.60;;;11.38;;
35418;SDS011;21525;41.240;16.500;2024-02-21T06:54:56;17.15;;;10.50;;
35418;SDS011;21525;41.240;16.500;2024-02-21T06:57:22;23.20;;;11.05;;
35418;SDS011;21525;41.240;16.500;2024-02-21T06:59:48;16.08;;;9.85;;
35418;SDS011;21525;41.240;16.500;2024-02-21T07:02:17;17.85;;;10.85;;
35418;SDS011;21525;41.240;16.500;2024-02-21T07:04:43;22.38;;;10.45;;
35418;SDS011;21525;41.240;16.500;2024-02-21T07:07:09;17.10;;;10.27;;
35418;SDS011;21525;41.240;16.500;2024-02-21T07:09:34;20.00;;;10.52;;
35418;SDS011;21525;41.240;16.500;2024-02-21T07:12:00;18.02;;;11.27;;
35418;SDS011;21525;41.240;16.500;2024-02-21T07:14:29;20.70;;;11.40;;
35418;SDS011;21525;41.240;16.500;2024-02-21T07:16:55;14.77;;;10.15;;
35418;SDS011;21525;41.240;16.500;2024-02-21T07:19:22;18.77;;;9.13;;
35418;SDS011;21525;41.240;16.500;2024-02-21T07:21:48;16.95;;;9.73;;
35418;SDS011;21525;41.240;16.500;2024-02-21T07:24:14;22.35;;;9.27;;
35418;SDS011;21525;41.240;16.500;2024-02-21T07:26:43;23.05;;;8.90;;
35418;SDS011;21525;41.240;16.500;2024-02-21T07:29:09;16.77;;;8.43;;
35418;SDS011;21525;41.240;16.500;2024-02-21T07:31:42;15.15;;;7.25;;
35418;SDS011;21525;41.240;16.500;2024-02-21T07:34:08;14.85;;;7.05;;
35418;SDS011;21525;41.240;16.500;2024-02-21T07:36:34;17.75;;;7.35;;
35418;SDS011;21525;41.240;16.500;2024-02-21T07:39:02;14.02;;;7.07;;
35418;SDS011;21525;41.240;16.500;2024-02-21T07:41:30;18.52;;;8.60;;
35418;SDS011;21525;41.240;16.500;2024-02-21T07:43:56;20.05;;;11.07;;
35418;SDS011;21525;41.240;16.500;2024-02-21T07:46:22;19.63;;;12.15;;
35418;SDS011;21525;41.240;16.500;2024-02-21T07:48:48;32.88;;;12.88;;
35418;SDS011;21525;41.240;16.500;2024-02-21T07:51:15;20.77;;;11.70;;
35418;SDS011;21525;41.240;16.500;2024-02-21T07:56:16;61.35;;;14.65;;
35418;SDS011;21525;41.240;16.500;2024-02-21T07:58:42;28.60;;;11.18;;
35418;SDS011;21525;41.240;16.500;2024-02-21T08:01:08;18.92;;;10.93;;
35418;SDS011;21525;41.240;16.500;2024-02-21T08:03:34;20.92;;;11.65;;
35418;SDS011;21525;41.240;16.500;2024-02-21T08:06:00;24.80;;;12.68;;
35418;SDS011;21525;41.240;16.500;2024-02-21T08:08:27;20.90;;;12.35;;
35418;SDS011;21525;41.240;16.500;2024-02-21T08:10:52;32.78;;;12.95;;
35418;SDS011;21525;41.240;16.500;2024-02-21T08:13:18;32.38;;;13.50;;
35418;SDS011;21525;41.240;16.500;2024-02-21T08:15:44;33.47;;;14.05;;
35418;SDS011;21525;41.240;16.500;2024-02-21T08:18:09;28.20;;;14.88;;
35418;SDS011;21525;41.240;16.500;2024-02-21T08:20:35;33.70;;;17.23;;
35418;SDS011;21525;41.240;16.500;2024-02-21T08:23:01;23.58;;;13.77;;
35418;SDS011;21525;41.240;16.500;2024-02-21T08:25:27;23.20;;;14.07;;
35418;SDS011;21525;41.240;16.500;2024-02-21T08:27:58;28.35;;;14.02;;
35418;SDS011;21525;41.240;16.500;2024-02-21T08:30:25;29.45;;;14.55;;
35418;SDS011;21525;41.240;16.500;2024-02-21T08:32:51;41.22;;;14.25;;
35418;SDS011;21525;41.240;16.500;2024-02-21T08:35:18;39.95;;;13.05;;
35418;SDS011;21525;41.240;16.500;2024-02-21T08:37:44;24.83;;;11.90;;
35418;SDS011;21525;41.240;16.500;2024-02-21T08:40:12;36.03;;;11.57;;
35418;SDS011;21525;41.240;16.500;2024-02-21T08:42:41;30.30;;;11.63;;
35418;SDS011;21525;41.240;16.500;2024-02-21T08:45:07;21.58;;;10.10;;
35418;SDS011;21525;41.240;16.500;2024-02-21T08:47:33;24.52;;;9.13;;
35418;SDS011;21525;41.240;16.500;2024-02-21T08:50:01;16.55;;;8.88;;
35418;SDS011;21525;41.240;16.500;2024-02-21T08:52:27;21.90;;;10.02;;
35418;SDS011;21525;41.240;16.500;2024-02-21T08:54:53;20.77;;;10.55;;
35418;SDS011;21525;41.240;16.500;2024-02-21T08:57:20;16.63;;;10.38;;
35418;SDS011;21525;41.240;16.500;2024-02-21T08:59:46;17.92;;;9.77;;
35418;SDS011;21525;41.240;16.500;2024-02-21T09:02:14;23.13;;;10.60;;
35418;SDS011;21525;41.240;16.500;2024-02-21T09:04:41;28.33;;;10.95;;
35418;SDS011;21525;41.240;16.500;2024-02-21T09:07:07;29.40;;;15.00;;
35418;SDS011;21525;41.240;16.500;2024-02-21T09:09:33;31.00;;;15.35;;
35418;SDS011;21525;41.240;16.500;2024-02-21T09:11:59;30.70;;;13.52;;
35418;SDS011;21525;41.240;16.500;2024-02-21T09:14:31;27.00;;;12.68;;
35418;SDS011;21525;41.240;16.500;2024-02-21T09:17:06;25.67;;;10.85;;
35418;SDS011;21525;41.240;16.500;2024-02-21T09:19:32;49.90;;;12.90;;
35418;SDS011;21525;41.240;16.500;2024-02-21T09:21:59;37.33;;;12.00;;
35418;SDS011;21525;41.240;16.500;2024-02-21T09:24:24;24.15;;;11.32;;
35418;SDS011;21525;41.240;16.500;2024-02-21T09:26:50;44.05;;;12.88;;
35418;SDS011;21525;41.240;16.500;2024-02-21T09:29:16;35.25;;;11.35;;
35418;SDS011;21525;41.240;16.500;2024-02-21T09:31:42;36.67;;;13.25;;
35418;SDS011;21525;41.240;16.500;2024-02-21T09:34:07;41.60;;;13.68;;
35418;SDS011;21525;41.240;16.500;2024-02-21T09:36:33;36.45;;;15.32;;
35418;SDS011;21525;41.240;16.500;2024-02-21T09:38:59;27.52;;;11.10;;
35418;SDS011;21525;41.240;16.500;2024-02-21T09:41:25;25.70;;;10.60;;
35418;SDS011;21525;41.240;16.500;2024-02-21T09:43:53;27.20;;;9.57;;
35418;SDS011;21525;41.240;16.500;2024-02-21T09:46:19;32.25;;;11.55;;
35418;SDS011;21525;41.240;16.500;2024-02-21T09:51:47;28.83;;;9.20;;
35418;SDS011;21525;41.240;16.500;2024-02-21T09:54:16;38.95;;;11.73;;
35418;SDS011;21525;41.240;16.500;2024-02-21T09:56:47;38.15;;;11.63;;
35418;SDS011;21525;41.240;16.500;2024-02-21T09:59:16;41.25;;;13.60;;
35418;SDS011;21525;41.240;16.500;2024-02-21T10:01:42;23.55;;;10.77;;
35418;SDS011;21525;41.240;16.500;2024-02-21T10:04:09;17.10;;;8.90;;
35418;SDS011;21525;41.240;16.500;2024-02-21T10:06:35;22.67;;;8.68;;
35418;SDS011;21525;41.240;16.500;2024-02-21T10:09:02;19.73;;;8.30;;
35418;SDS011;21525;41.240;16.500;2024-02-21T10:11:29;16.20;;;7.80;;
35418;SDS011;21525;41.240;16.500;2024-02-21T10:14:05;19.75;;;7.07;;
35418;SDS011;21525;41.240;16.500;2024-02-21T10:16:32;21.38;;;7.47;;
35418;SDS011;21525;41.240;16.500;2024-02-21T10:18:59;16.40;;;6.32;;
35418;SDS011;21525;41.240;16.500;2024-02-21T10:21:25;22.17;;;6.78;;
35418;SDS011;21525;41.240;16.500;2024-02-21T10:23:51;19.63;;;8.20;;
35418;SDS011;21525;41.240;16.500;2024-02-21T10:26:18;18.60;;;8.98;;
35418;SDS011;21525;41.240;16.500;2024-02-21T10:28:45;17.67;;;7.80;;
35418;SDS011;21525;41.240;16.500;2024-02-21T10:31:22;24.52;;;8.50;;
35418;SDS011;21525;41.240;16.500;2024-02-21T10:33:56;18.25;;;6.57;;
35418;SDS011;21525;41.240;16.500;2024-02-21T10:36:28;17.92;;;6.78;;
35418;SDS011;21525;41.240;16.500;2024-02-21T10:38:54;18.25;;;6.75;;
35418;SDS011;21525;41.240;16.500;2024-02-21T10:41:21;18.38;;;7.15;;
35418;SDS011;21525;41.240;16.500;2024-02-21T10:43:50;21.88;;;7.50;;
35418;SDS011;21525;41.240;16.500;2024-02-21T10:46:20;17.58;;;7.05;;
35418;SDS011;21525;41.240;16.500;2024-02-21T10:48:48;19.10;;;7.35;;
35418;SDS011;21525;41.240;16.500;2024-02-21T10:51:22;16.10;;;6.97;;
35418;SDS011;21525;41.240;16.500;2024-02-21T10:54:30;15.13;;;6.32;;
35418;SDS011;21525;41.240;16.500;2024-02-21T10:57:00;20.05;;;8.60;;
35418;SDS011;21525;41.240;16.500;2024-02-21T10:59:29;21.67;;;7.03;;
35418;SDS011;21525;41.240;16.500;2024-02-21T11:01:57;14.90;;;6.55;;
35418;SDS011;21525;41.240;16.500;2024-02-21T11:04:23;11.35;;;5.50;;
35418;SDS011;21525;41.240;16.500;2024-02-21T11:06:50;18.08;;;6.57;;
35418;SDS011;21525;41.240;16.500;2024-02-21T11:09:17;14.35;;;6.18;;
35418;SDS011;21525;41.240;16.500;2024-02-21T11:11:45;13.63;;;6.40;;
35418;SDS011;21525;41.240;16.500;2024-02-21T11:14:17;16.00;;;6.78;;
35418;SDS011;21525;41.240;16.500;2024-02-21T11:16:44;19.63;;;7.63;;
35418;SDS011;21525;41.240;16.500;2024-02-21T11:19:22;19.98;;;8.10;;
35418;SDS011;21525;41.240;16.500;2024-02-21T11:21:50;16.58;;;7.22;;
35418;SDS011;21525;41.240;16.500;2024-02-21T11:24:26;10.48;;;5.70;;
35418;SDS011;21525;41.240;16.500;2024-02-21T11:26:56;10.80;;;6.18;;
35418;SDS011;21525;41.240;16.500;2024-02-21T11:29:33;20.30;;;6.60;;
35418;SDS011;21525;41.240;16.500;2024-02-21T11:32:08;13.43;;;6.82;;
35418;SDS011;21525;41.240;16.500;2024-02-21T11:34:36;14.02;;;6.50;;
35418;SDS011;21525;41.240;16.500;2024-02-21T11:37:01;18.02;;;8.02;;
35418;SDS011;21525;41.240;16.500;2024-02-21T11:39:38;17.92;;;6.93;;
35418;SDS011;21525;41.240;16.500;2024-02-21T11:42:05;24.25;;;7.97;;
35418;SDS011;21525;41.240;16.500;2024-02-21T11:44:33;13.52;;;6.07;;
35418;SDS011;21525;41.240;16.500;2024-02-21T11:47:00;13.90;;;6.20;;
35418;SDS011;21525;41.240;16.500;2024-02-21T11:49:29;16.08;;;5.80;;
35418;SDS011;21525;41.240;16.500;2024-02-21T11:52:02;14.48;;;7.25;;
35418;SDS011;21525;41.240;16.500;2024-02-21T11:54:32;12.68;;;6.93;;
35418;SDS011;21525;41.240;16.500;2024-02-21T11:57:00;14.85;;;6.43;;
35418;SDS011;21525;41.240;16.500;2024-02-21T11:59:26;18.52;;;6.03;;
35418;SDS011;21525;41.240;16.500;2024-02-21T12:01:55;16.70;;;6.13;;
35418;SDS011;21525;41.240;16.500;2024-02-21T12:04:22;20.90;;;6.78;;
35418;SDS011;21525;41.240;16.500;2024-02-21T12:06:54;17.83;;;7.60;;
35418;SDS011;21525;41.240;16.500;2024-02-21T12:09:22;16.80;;;7.32;;
35418;SDS011;21525;41.240;16.500;2024-02-21T12:12:02;14.00;;;6.00;;
35418;SDS011;21525;41.240;16.500;2024-02-21T12:14:30;14.88;;;6.10;;
35418;SDS011;21525;41.240;16.500;2024-02-21T12:16:57;10.85;;;6.22;;
35418;SDS011;21525;41.240;16.500;2024-02-21T12:19:23;9.10;;;5.35;;
35418;SDS011;21525;41.240;16.500;2024-02-21T12:21:49;11.15;;;5.63;;
35418;SDS011;21525;41.240;16.500;2024-02-21T12:24:16;12.20;;;6.10;;
35418;SDS011;21525;41.240;16.500;2024-02-21T12:26:42;12.40;;;5.95;;
35418;SDS011;21525;41.240;16.500;2024-02-21T12:29:08;12.63;;;5.68;;
35418;SDS011;21525;41.240;16.500;2024-02-21T12:34:05;11.63;;;5.47;;
35418;SDS011;21525;41.240;16.500;2024-02-21T12:36:32;8.90;;;5.25;;
35418;SDS011;21525;41.240;16.500;2024-02-21T12:38:59;11.43;;;5.40;;
35418;SDS011;21525;41.240;16.500;2024-02-21T12:41:27;13.35;;;5.82;;
35418;SDS011;21525;41.240;16.500;2024-02-21T12:43:56;12.45;;;6.53;;
35418;SDS011;21525;41.240;16.500;2024-02-21T12:46:22;12.05;;;5.95;;
35418;SDS011;21525;41.240;16.500;2024-02-21T12:48:47;14.05;;;5.82;;
35418;SDS011;21525;41.240;16.500;2024-02-21T12:51:13;9.02;;;6.47;;
35418;SDS011;21525;41.240;16.500;2024-02-21T12:53:40;18.55;;;6.22;;
35418;SDS011;21525;41.240;16.500;2024-02-21T12:56:06;14.57;;;6.75;;
35418;SDS011;21525;41.240;16.500;2024-02-21T12:58:33;9.63;;;5.25;;
35418;SDS011;21525;41.240;16.500;2024-02-21T13:00:59;21.23;;;9.45;;
35418;SDS011;21525;41.240;16.500;2024-02-21T13:03:24;14.43;;;7.55;;
35418;SDS011;21525;41.240;16.500;2024-02-21T13:05:51;17.75;;;9.70;;
35418;SDS011;21525;41.240;16.500;2024-02-21T13:08:16;15.82;;;6.72;;
35418;SDS011;21525;41.240;16.500;2024-02-21T13:10:43;8.18;;;5.72;;
35418;SDS011;21525;41.240;16.500;2024-02-21T13:13:09;18.42;;;7.00;;
35418;SDS011;21525;41.240;16.500;2024-02-21T13:15:34;11.52;;;5.85;;
35418;SDS011;21525;41.240;16.500;2024-02-21T13:18:02;10.48;;;5.82;;
35418;SDS011;21525;41.240;16.500;2024-02-21T13:20:29;10.05;;;5.30;;
35418;SDS011;21525;41.240;16.500;2024-02-21T13:22:55;8.30;;;5.63;;
35418;SDS011;21525;41.240;16.500;2024-02-21T13:25:21;12.68;;;6.55;;
35418;SDS011;21525;41.240;16.500;2024-02-21T13:27:47;13.25;;;7.10;;
35418;SDS011;21525;41.240;16.500;2024-02-21T13:30:14;18.15;;;9.52;;
35418;SDS011;21525;41.240;16.500;2024-02-21T13:32:41;15.13;;;7.28;;
35418;SDS011;21525;41.240;16.500;2024-02-21T13:35:08;10.82;;;6.65;;
35418;SDS011;21525;41.240;16.500;2024-02-21T13:40:03;11.48;;;6.07;;
35418;SDS011;21525;41.240;16.500;2024-02-21T13:42:29;16.92;;;5.82;;
35418;SDS011;21525;41.240;16.500;2024-02-21T13:44:55;12.23;;;5.53;;
35418;SDS011;21525;41.240;16.500;2024-02-21T13:47:21;14.32;;;6.80;;
35418;SDS011;21525;41.240;16.500;2024-02-21T13:49:47;21.67;;;7.53;;
35418;SDS011;21525;41.240;16.500;2024-02-21T13:52:13;12.82;;;6.65;;
35418;SDS011;21525;41.240;16.500;2024-02-21T13:54:40;12.30;;;6.35;;
35418;SDS011;21525;41.240;16.500;2024-02-21T13:57:05;12.27;;;5.88;;
35418;SDS011;21525;41.240;16.500;2024-02-21T13:59:31;10.75;;;6.05;;
35418;SDS011;21525;41.240;16.500;2024-02-21T14:01:59;10.18;;;6.07;;
35418;SDS011;21525;41.240;16.500;2024-02-21T14:04:25;11.07;;;6.05;;
35418;SDS011;21525;41.240;16.500;2024-02-21T14:06:51;9.48;;;5.95;;
35418;SDS011;21525;41.240;16.500;2024-02-21T14:09:18;13.00;;;6.57;;
35418;SDS011;21525;41.240;16.500;2024-02-21T14:11:44;9.20;;;5.60;;
35418;SDS011;21525;41.240;16.500;2024-02-21T14:14:11;9.07;;;6.40;;
35418;SDS011;21525;41.240;16.500;2024-02-21T14:16:36;9.57;;;5.88;;
35418;SDS011;21525;41.240;16.500;2024-02-21T14:19:02;10.63;;;5.78;;
35418;SDS011;21525;41.240;16.500;2024-02-21T14:21:28;10.63;;;6.00;;
35418;SDS011;21525;41.240;16.500;2024-02-21T14:23:54;11.10;;;6.53;;
35418;SDS011;21525;41.240;16.500;2024-02-21T14:26:22;8.88;;;6.22;;
35418;SDS011;21525;41.240;16.500;2024-02-21T14:28:47;13.52;;;6.15;;
35418;SDS011;21525;41.240;16.500;2024-02-21T14:31:13;9.82;;;6.03;;